createdAt,value
2023-02-28T00:01:14.285Z,1.70
2023-02-28T00:03:41.174Z,1.60
2023-02-28T00:06:10.413Z,1.60
2023-02-28T00:08:38.514Z,1.60
2023-02-28T00:11:07.287Z,1.50
2023-02-28T00:13:37.247Z,1.40
2023-02-28T00:16:06.853Z,1.30
2023-02-28T00:18:34.044Z,1.20
2023-02-28T00:21:00.777Z,1.30
2023-02-28T00:23:28.500Z,1.20
2023-02-28T00:25:55.399Z,1.20
2023-02-28T00:28:22.607Z,1.20
2023-02-28T00:30:49.526Z,1.20
2023-02-28T00:37:10.003Z,1.20
2023-02-28T00:39:40.996Z,1.30
2023-02-28T00:42:08.726Z,1.40
2023-02-28T00:44:35.406Z,1.40
2023-02-28T00:47:02.274Z,1.40
2023-02-28T00:49:29.245Z,1.40
2023-02-28T00:51:56.883Z,1.30
2023-02-28T00:54:24.463Z,1.40
2023-02-28T00:56:51.669Z,1.40
2023-02-28T00:59:18.907Z,1.50
2023-02-28T01:01:47.126Z,1.60
2023-02-28T01:04:15.052Z,1.60
2023-02-28T01:06:42.018Z,1.60
2023-02-28T01:09:09.485Z,1.60
2023-02-28T01:11:36.570Z,1.50
2023-02-28T01:14:04.891Z,1.60
2023-02-28T01:16:32.033Z,1.50
2023-02-28T01:18:58.752Z,1.40
2023-02-28T01:21:25.728Z,1.30
2023-02-28T01:23:52.598Z,1.20
2023-02-28T01:26:22.491Z,1.10
2023-02-28T01:28:50.912Z,1.10
2023-02-28T01:31:19.332Z,1.10
2023-02-28T01:33:46.580Z,1.10
2023-02-28T01:36:18.965Z,1.00
2023-02-28T01:38:46.133Z,1.10
2023-02-28T01:41:34.309Z,1.10
2023-02-28T01:44:28.364Z,1.20
2023-02-28T01:46:55.064Z,1.30
2023-02-28T01:49:22.022Z,1.30
2023-02-28T01:51:52.735Z,1.40
2023-02-28T01:54:27.408Z,1.40
2023-02-28T01:57:16.691Z,1.30
2023-02-28T02:00:05.880Z,1.30
2023-02-28T02:02:32.815Z,1.30
2023-02-28T02:05:04.576Z,1.40
2023-02-28T02:07:35.568Z,1.40
2023-02-28T02:10:20.677Z,1.30
2023-02-28T02:12:59.298Z,1.30
2023-02-28T02:15:35.521Z,1.30
2023-02-28T02:18:38.518Z,1.30
2023-02-28T02:21:29.280Z,1.30
2023-02-28T02:24:19.995Z,1.20
2023-02-28T02:27:19.263Z,1.30
2023-02-28T02:30:25.201Z,1.20
2023-02-28T02:33:07.373Z,1.10
2023-02-28T02:35:41.708Z,1.10
2023-02-28T02:38:27.229Z,1.10
2023-02-28T02:41:15.891Z,1.10
2023-02-28T02:43:54.838Z,1.20
2023-02-28T02:46:29.072Z,1.20
2023-02-28T02:48:59.098Z,1.10
2023-02-28T02:51:27.290Z,1.10
2023-02-28T02:54:17.339Z,1.20
2023-02-28T02:56:47.858Z,1.30
2023-02-28T02:59:22.385Z,1.20
2023-02-28T03:01:59.275Z,1.10
2023-02-28T03:04:28.783Z,1.10
2023-02-28T03:06:55.834Z,1.20
2023-02-28T03:09:23.549Z,1.20
2023-02-28T03:11:53.174Z,1.10
2023-02-28T03:14:55.232Z,1.00
2023-02-28T03:17:49.038Z,1.00
2023-02-28T03:20:36.079Z,0.90
2023-02-28T03:23:14.941Z,1.60
2023-02-28T03:25:57.087Z,0.80
2023-02-28T03:28:39.194Z,0.80
2023-02-28T03:31:37.123Z,0.80
2023-02-28T03:34:09.306Z,0.70
2023-02-28T03:36:47.041Z,0.70
2023-02-28T03:39:24.564Z,0.50
2023-02-28T03:42:00.889Z,0.40
2023-02-28T03:44:34.916Z,0.30
2023-02-28T03:47:09.264Z,0.30
2023-02-28T03:49:50.188Z,0.30
2023-02-28T03:52:20.785Z,0.30
2023-02-28T03:54:53.169Z,0.40
2023-02-28T03:57:33.185Z,0.40
2023-02-28T04:00:31.306Z,0.40
2023-02-28T04:02:58.587Z,0.60
2023-02-28T04:05:25.662Z,0.70
2023-02-28T04:07:52.817Z,0.80
2023-02-28T04:10:19.828Z,0.90
2023-02-28T04:12:46.612Z,0.90
2023-02-28T04:15:13.333Z,0.90
2023-02-28T04:17:40.145Z,0.90
2023-02-28T04:20:10.648Z,1.00
2023-02-28T04:22:38.318Z,1.00
2023-02-28T04:25:06.816Z,1.00
2023-02-28T04:27:33.697Z,1.00
2023-02-28T04:30:00.460Z,1.10
2023-02-28T04:32:27.190Z,1.10
2023-02-28T04:34:54.024Z,1.20
2023-02-28T04:37:21.095Z,1.30
2023-02-28T04:39:47.771Z,1.20
2023-02-28T04:42:14.884Z,1.10
2023-02-28T04:44:41.588Z,1.10
2023-02-28T04:47:08.284Z,1.10
2023-02-28T04:49:35.164Z,1.10
2023-02-28T04:52:01.834Z,1.10
2023-02-28T04:54:29.403Z,1.10
2023-02-28T04:56:56.396Z,1.10
2023-02-28T04:59:23.120Z,1.10
2023-02-28T05:01:50.496Z,1.10
2023-02-28T05:04:17.534Z,1.10
2023-02-28T05:06:44.251Z,1.00
2023-02-28T05:09:14.198Z,1.00
2023-02-28T05:11:41.448Z,0.90
2023-02-28T05:14:12.198Z,0.90
2023-02-28T05:16:38.934Z,0.80
2023-02-28T05:19:05.684Z,0.80
2023-02-28T05:21:35.142Z,0.70
2023-02-28T05:24:05.095Z,0.70
2023-02-28T05:26:34.977Z,0.70
2023-02-28T05:29:01.644Z,0.70
2023-02-28T05:31:28.878Z,0.70
2023-02-28T05:33:55.830Z,0.70
2023-02-28T05:36:22.678Z,0.80
2023-02-28T05:38:51.074Z,0.80
2023-02-28T05:41:20.294Z,0.70
2023-02-28T05:43:48.014Z,0.80
2023-02-28T05:46:15.213Z,0.90
2023-02-28T05:48:43.320Z,0.80
2023-02-28T05:51:10.456Z,0.80
2023-02-28T05:53:37.664Z,0.80
2023-02-28T05:56:05.232Z,0.70
2023-02-28T05:58:32.340Z,0.70
2023-02-28T06:01:20.362Z,0.70
2023-02-28T06:03:47.229Z,0.80
2023-02-28T06:06:13.926Z,0.90
2023-02-28T06:08:40.595Z,0.90
2023-02-28T06:11:07.876Z,0.90
2023-02-28T06:13:34.596Z,0.90
2023-02-28T06:16:04.398Z,0.80
2023-02-28T06:18:31.247Z,0.80
2023-02-28T06:20:57.905Z,0.90
2023-02-28T06:23:24.721Z,1.10
2023-02-28T06:25:51.587Z,1.10
2023-02-28T06:28:18.299Z,1.10
2023-02-28T06:30:46.564Z,1.10
2023-02-28T06:33:13.380Z,1.00
2023-02-28T06:35:40.269Z,1.00
2023-02-28T06:38:07.153Z,1.20
2023-02-28T06:40:36.066Z,1.20
2023-02-28T06:43:03.439Z,1.20
2023-02-28T06:45:30.156Z,1.20
2023-02-28T06:47:56.880Z,1.20
2023-02-28T06:50:23.553Z,1.20
2023-02-28T06:52:54.804Z,1.30
2023-02-28T06:55:21.792Z,1.40
2023-02-28T06:57:48.514Z,1.50
2023-02-28T07:00:15.721Z,1.50
2023-02-28T07:02:42.391Z,1.50
2023-02-28T07:05:09.612Z,1.50
2023-02-28T07:07:39.162Z,1.50
2023-02-28T07:10:06.330Z,1.60
2023-02-28T07:12:33.227Z,1.60
2023-02-28T07:14:59.903Z,1.40
2023-02-28T07:17:26.538Z,1.40
2023-02-28T07:19:53.209Z,1.30
2023-02-28T07:22:19.926Z,1.30
2023-02-28T07:24:46.635Z,3.00
2023-02-28T07:27:13.370Z,1.30
2023-02-28T07:29:40.054Z,1.40
2023-02-28T07:32:06.906Z,1.40
2023-02-28T07:34:33.598Z,1.40
2023-02-28T07:37:00.881Z,1.50
2023-02-28T07:39:27.592Z,1.60
2023-02-28T07:41:54.279Z,1.80
2023-02-28T07:44:21.989Z,1.80
2023-02-28T07:46:48.780Z,2.00
2023-02-28T07:49:15.625Z,2.20
2023-02-28T07:51:42.590Z,1.80
2023-02-28T07:54:09.280Z,2.20
2023-02-28T07:56:35.994Z,2.20
2023-02-28T07:59:02.669Z,2.10
2023-02-28T08:01:29.813Z,2.10
2023-02-28T08:03:58.129Z,2.20
2023-02-28T08:06:26.819Z,2.30
2023-02-28T08:08:54.470Z,2.40
2023-02-28T08:11:21.144Z,2.50
2023-02-28T08:13:47.865Z,2.60
2023-02-28T08:16:23.150Z,2.60
2023-02-28T08:18:51.923Z,2.70
2023-02-28T08:21:19.289Z,2.80
2023-02-28T08:23:51.549Z,2.90
2023-02-28T08:26:19.456Z,3.00
2023-02-28T08:28:47.265Z,3.20
2023-02-28T08:31:16.114Z,3.20
2023-02-28T08:33:42.992Z,3.20
2023-02-28T08:36:10.518Z,3.20
2023-02-28T08:38:38.248Z,3.10
2023-02-28T08:41:10.007Z,3.00
2023-02-28T08:43:37.094Z,3.10
2023-02-28T08:46:04.551Z,3.10
2023-02-28T08:48:33.309Z,3.30
2023-02-28T08:51:08.571Z,3.50
2023-02-28T08:53:40.267Z,3.70
2023-02-28T08:56:08.651Z,3.90
2023-02-28T08:58:36.244Z,4.00
2023-02-28T09:01:10.585Z,4.20
2023-02-28T09:03:37.436Z,4.30
2023-02-28T09:06:04.541Z,4.40
2023-02-28T09:08:32.152Z,4.50
2023-02-28T09:11:00.661Z,4.60
2023-02-28T09:13:29.067Z,4.60
2023-02-28T09:15:58.421Z,4.70
2023-02-28T09:18:25.526Z,4.80
2023-02-28T09:20:52.242Z,4.70
2023-02-28T09:23:19.264Z,4.70
2023-02-28T09:25:48.480Z,4.80
2023-02-28T09:28:18.000Z,4.90
2023-02-28T09:30:52.783Z,5.00
2023-02-28T09:33:24.094Z,5.10
2023-02-28T09:35:51.791Z,5.20
2023-02-28T09:38:18.996Z,5.30
2023-02-28T09:40:52.877Z,5.50
2023-02-28T09:43:23.292Z,5.50
2023-02-28T09:45:59.702Z,5.60
2023-02-28T09:48:32.794Z,5.60
2023-02-28T09:51:13.892Z,5.60
2023-02-28T09:53:41.013Z,5.60
2023-02-28T09:56:16.463Z,5.80
2023-02-28T09:58:48.860Z,6.00
2023-02-28T10:01:46.207Z,6.00
2023-02-28T10:04:27.910Z,6.10
2023-02-28T10:06:54.759Z,6.20
2023-02-28T10:09:32.944Z,6.30
2023-02-28T10:12:05.408Z,6.40
2023-02-28T10:14:35.369Z,6.50
2023-02-28T10:17:14.261Z,7.50
2023-02-28T10:19:51.228Z,6.80
2023-02-28T10:22:20.712Z,6.90
2023-02-28T10:24:50.349Z,7.00
2023-02-28T10:27:22.986Z,7.10
2023-02-28T10:29:54.370Z,7.30
2023-02-28T10:32:36.619Z,7.30
2023-02-28T10:35:17.420Z,7.40
2023-02-28T10:37:47.606Z,7.50
2023-02-28T10:40:22.859Z,7.50
2023-02-28T10:42:57.116Z,7.70
2023-02-28T10:45:24.470Z,7.70
2023-02-28T10:48:02.443Z,7.90
2023-02-28T10:50:54.441Z,7.90
2023-02-28T10:53:24.692Z,8.10
2023-02-28T10:56:09.492Z,8.20
2023-02-28T10:59:13.934Z,8.30
2023-02-28T11:01:45.571Z,8.40
2023-02-28T11:04:24.200Z,10.10
2023-02-28T11:07:02.412Z,8.50
2023-02-28T11:09:33.768Z,8.60
2023-02-28T11:12:00.953Z,8.70
2023-02-28T11:14:30.691Z,8.80
2023-02-28T11:17:04.294Z,8.90
2023-02-28T11:19:40.543Z,8.90
2023-02-28T11:22:07.852Z,9.00
2023-02-28T11:24:48.466Z,9.00
2023-02-28T11:27:52.528Z,9.10
2023-02-28T11:30:38.895Z,9.10
2023-02-28T11:33:29.932Z,9.20
2023-02-28T11:36:09.753Z,9.30
2023-02-28T11:38:37.616Z,10.60
2023-02-28T11:41:32.300Z,9.50
2023-02-28T11:44:24.472Z,9.50
2023-02-28T11:46:55.680Z,9.60
2023-02-28T11:49:40.113Z,9.80
2023-02-28T11:52:34.416Z,9.80
2023-02-28T11:55:22.027Z,11.00
2023-02-28T11:58:15.508Z,9.90
2023-02-28T12:01:01.068Z,10.00
2023-02-28T12:03:57.413Z,10.00
2023-02-28T12:06:44.215Z,10.00
2023-02-28T12:09:29.168Z,10.10
2023-02-28T12:12:06.345Z,10.10
2023-02-28T12:14:56.854Z,10.20
2023-02-28T12:17:44.666Z,10.30
2023-02-28T12:20:33.043Z,10.40
2023-02-28T12:23:11.345Z,10.40
2023-02-28T12:26:07.298Z,10.40
2023-02-28T12:28:55.077Z,10.50
2023-02-28T12:31:25.899Z,10.50
2023-02-28T12:33:56.975Z,10.60
2023-02-28T12:36:24.972Z,10.60
2023-02-28T12:39:18.556Z,12.40
2023-02-28T12:42:00.905Z,10.70
2023-02-28T12:44:34.508Z,10.80
2023-02-28T12:47:06.328Z,10.90
2023-02-28T12:49:39.454Z,10.90
2023-02-28T12:52:06.762Z,11.00
2023-02-28T12:54:48.221Z,11.10
2023-02-28T12:57:38.431Z,11.10
2023-02-28T13:00:16.251Z,11.20
2023-02-28T13:03:00.720Z,11.20
2023-02-28T13:05:59.835Z,12.10
2023-02-28T13:09:03.374Z,11.20
2023-02-28T13:11:41.009Z,11.30
2023-02-28T13:14:28.952Z,11.30
2023-02-28T13:17:13.046Z,11.20
2023-02-28T13:19:54.967Z,11.30
2023-02-28T13:22:42.267Z,11.40
2023-02-28T13:25:24.178Z,11.40
2023-02-28T13:27:57.983Z,11.40
2023-02-28T13:30:56.655Z,11.40
2023-02-28T13:33:31.083Z,11.50
2023-02-28T13:36:23.225Z,12.50
2023-02-28T13:39:05.206Z,11.50
2023-02-28T13:41:32.149Z,11.40
2023-02-28T13:44:09.019Z,13.00
2023-02-28T13:46:57.652Z,11.40
2023-02-28T13:49:24.544Z,11.40
2023-02-28T13:51:53.980Z,11.50
2023-02-28T13:54:59.697Z,12.70
2023-02-28T13:57:50.297Z,11.50
2023-02-28T14:00:38.668Z,11.50
2023-02-28T14:03:29.958Z,11.40
2023-02-28T14:06:17.974Z,11.30
2023-02-28T14:09:01.781Z,11.30
2023-02-28T14:11:35.916Z,11.30
2023-02-28T14:14:05.037Z,12.40
2023-02-28T14:16:48.064Z,11.20
2023-02-28T14:19:28.255Z,11.20
2023-02-28T14:22:17.021Z,11.20
2023-02-28T14:24:43.650Z,11.20
2023-02-28T14:27:16.781Z,11.10
2023-02-28T14:30:05.623Z,11.10
2023-02-28T14:32:38.231Z,11.00
2023-02-28T14:35:17.734Z,11.00
2023-02-28T14:37:45.457Z,11.00
2023-02-28T14:40:28.056Z,10.90
2023-02-28T14:43:03.322Z,10.90
2023-02-28T14:45:32.716Z,10.80
2023-02-28T14:48:00.684Z,12.20
2023-02-28T14:50:34.756Z,10.80
2023-02-28T14:53:02.249Z,10.70
2023-02-28T14:55:35.162Z,10.70
2023-02-28T14:58:07.905Z,12.50
2023-02-28T15:00:38.486Z,10.70
2023-02-28T15:03:30.104Z,10.60
2023-02-28T15:05:59.283Z,10.60
2023-02-28T15:08:27.444Z,10.50
2023-02-28T15:11:02.400Z,10.50
2023-02-28T15:13:41.181Z,10.40
2023-02-28T15:16:14.148Z,10.40
2023-02-28T15:19:09.903Z,10.40
2023-02-28T15:21:44.368Z,10.30
2023-02-28T15:24:24.865Z,10.30
2023-02-28T15:26:58.090Z,10.30
2023-02-28T15:29:27.947Z,10.20
2023-02-28T15:32:02.958Z,10.20
2023-02-28T15:34:42.347Z,11.70
2023-02-28T15:37:28.256Z,10.10
2023-02-28T15:39:56.260Z,10.00
2023-02-28T15:42:28.446Z,9.90
2023-02-28T15:44:55.191Z,9.80
2023-02-28T15:47:25.093Z,9.70
2023-02-28T15:49:55.256Z,9.70
2023-02-28T15:52:42.950Z,9.90
2023-02-28T15:55:23.183Z,9.60
2023-02-28T15:57:54.176Z,9.50
2023-02-28T16:00:23.719Z,9.40
2023-02-28T16:02:51.109Z,9.30
2023-02-28T16:05:29.086Z,9.20
2023-02-28T16:07:58.546Z,9.20
2023-02-28T16:10:27.512Z,9.10
2023-02-28T16:12:56.582Z,9.00
2023-02-28T16:15:29.737Z,8.90
2023-02-28T16:17:57.911Z,8.80
2023-02-28T16:20:31.780Z,8.70
2023-02-28T16:23:02.332Z,8.50
2023-02-28T16:25:39.400Z,8.40
2023-02-28T16:28:24.998Z,8.20
2023-02-28T16:30:55.195Z,8.10
2023-02-28T16:33:21.892Z,8.00
2023-02-28T16:35:48.581Z,7.80
2023-02-28T16:38:15.250Z,9.40
2023-02-28T16:40:42.085Z,7.60
2023-02-28T16:43:14.796Z,7.50
2023-02-28T16:45:41.571Z,9.40
2023-02-28T16:48:14.864Z,7.40
2023-02-28T16:50:41.645Z,7.30
2023-02-28T16:53:08.317Z,7.30
2023-02-28T16:55:36.005Z,7.20
2023-02-28T16:58:03.565Z,7.20
2023-02-28T17:00:32.700Z,7.10
2023-02-28T17:03:05.220Z,7.00
2023-02-28T17:05:38.878Z,6.90
2023-02-28T17:08:06.520Z,6.90
2023-02-28T17:10:33.281Z,6.80
2023-02-28T17:13:13.010Z,6.70
2023-02-28T17:15:42.114Z,6.60
2023-02-28T17:18:14.747Z,6.50
2023-02-28T17:20:43.192Z,6.50
2023-02-28T17:23:10.249Z,6.40
2023-02-28T17:25:36.939Z,6.30
2023-02-28T17:28:04.300Z,6.30
2023-02-28T17:30:34.324Z,6.20
2023-02-28T17:33:01.380Z,6.20
2023-02-28T17:35:28.240Z,6.10
2023-02-28T17:37:55.177Z,6.10
2023-02-28T17:40:23.961Z,6.00
2023-02-28T17:42:53.127Z,6.00
2023-02-28T17:45:20.964Z,5.90
2023-02-28T17:47:51.080Z,5.90
2023-02-28T17:50:22.564Z,5.90
2023-02-28T17:52:51.230Z,5.80
2023-02-28T17:55:19.977Z,7.10
2023-02-28T17:57:48.112Z,5.70
2023-02-28T18:00:17.430Z,5.60
2023-02-28T18:02:45.251Z,5.60
2023-02-28T18:05:12.104Z,5.60
2023-02-28T18:07:39.492Z,5.50
2023-02-28T18:10:08.202Z,5.50
2023-02-28T18:12:34.901Z,5.40
2023-02-28T18:15:01.933Z,5.40
2023-02-28T18:17:28.651Z,5.30
2023-02-28T18:19:55.403Z,5.30
2023-02-28T18:22:22.295Z,5.30
2023-02-28T18:24:49.320Z,5.20
2023-02-28T18:27:16.176Z,5.10
2023-02-28T18:29:42.846Z,5.10
2023-02-28T18:32:10.205Z,5.00
2023-02-28T18:34:37.453Z,5.00
2023-02-28T18:37:04.401Z,4.90
2023-02-28T18:39:32.348Z,4.80
2023-02-28T18:41:59.150Z,4.80
2023-02-28T18:44:25.938Z,4.70
2023-02-28T18:46:52.877Z,4.80
2023-02-28T18:49:19.829Z,4.60
2023-02-28T18:51:48.022Z,4.60
2023-02-28T18:54:15.658Z,4.60
2023-02-28T18:56:43.081Z,4.50
2023-02-28T18:59:11.076Z,4.50
2023-02-28T19:01:38.334Z,4.50
2023-02-28T19:04:05.476Z,4.50
2023-02-28T19:06:33.918Z,4.40
2023-02-28T19:09:02.483Z,4.40
2023-02-28T19:11:29.763Z,4.40
2023-02-28T19:13:56.978Z,4.40
2023-02-28T19:16:24.250Z,4.40
2023-02-28T19:18:51.411Z,4.30
2023-02-28T19:21:20.083Z,4.30
2023-02-28T19:23:47.053Z,4.30
2023-02-28T19:26:19.932Z,4.20
2023-02-28T19:28:47.016Z,4.10
2023-02-28T19:31:25.102Z,4.10
2023-02-28T19:33:53.671Z,4.00
2023-02-28T19:36:21.464Z,3.90
2023-02-28T19:38:48.876Z,3.90
2023-02-28T19:41:16.597Z,3.90
2023-02-28T19:43:43.525Z,3.90
2023-02-28T19:46:11.909Z,3.80
2023-02-28T19:48:39.069Z,3.80
2023-02-28T19:51:09.310Z,3.80
2023-02-28T19:53:37.948Z,3.90
2023-02-28T19:56:05.540Z,3.80
2023-02-28T19:58:33.559Z,3.80
2023-02-28T20:01:11.079Z,3.80
2023-02-28T20:03:38.043Z,3.80
2023-02-28T20:06:09.680Z,3.80
2023-02-28T20:08:38.264Z,3.70
2023-02-28T20:11:15.010Z,3.70
2023-02-28T20:13:42.463Z,3.60
2023-02-28T20:16:11.694Z,3.60
2023-02-28T20:18:39.881Z,3.50
2023-02-28T20:21:09.541Z,3.50
2023-02-28T20:23:38.616Z,3.50
2023-02-28T20:26:06.027Z,3.50
2023-02-28T20:28:32.903Z,3.50
2023-02-28T20:31:00.561Z,3.40
2023-02-28T20:33:27.772Z,3.40
2023-02-28T20:36:02.010Z,3.40
2023-02-28T20:38:28.852Z,3.50
2023-02-28T20:40:56.706Z,3.50
2023-02-28T20:43:24.019Z,3.50
2023-02-28T20:45:55.359Z,3.50
2023-02-28T20:48:22.461Z,3.50
2023-02-28T20:50:50.517Z,3.40
2023-02-28T20:53:17.610Z,3.40
2023-02-28T20:56:06.544Z,3.40
2023-02-28T20:58:36.327Z,3.40
2023-02-28T21:01:18.267Z,3.40
2023-02-28T21:03:51.104Z,3.40
2023-02-28T21:06:20.185Z,3.40
2023-02-28T21:08:47.017Z,3.40
2023-02-28T21:11:16.259Z,3.30
2023-02-28T21:13:44.684Z,3.30
2023-02-28T21:16:13.921Z,3.30
2023-02-28T21:18:40.953Z,3.20
2023-02-28T21:21:19.529Z,3.20
2023-02-28T21:23:46.937Z,3.20
2023-02-28T21:26:16.798Z,3.50
2023-02-28T21:28:44.338Z,3.20
2023-02-28T21:31:14.369Z,3.20
2023-02-28T21:33:41.641Z,3.20
2023-02-28T21:36:17.794Z,3.10
2023-02-28T21:38:46.168Z,3.10
2023-02-28T21:41:16.029Z,3.10
2023-02-28T21:43:43.678Z,3.10
2023-02-28T21:46:13.129Z,3.10
2023-02-28T21:48:40.868Z,3.10
2023-02-28T21:51:11.076Z,3.20
2023-02-28T21:53:39.342Z,3.10
2023-02-28T21:56:14.334Z,3.10
2023-02-28T21:58:41.475Z,3.10
2023-02-28T22:01:11.347Z,3.00
2023-02-28T22:03:39.629Z,3.00
2023-02-28T22:06:21.870Z,3.00
2023-02-28T22:08:51.688Z,3.00
2023-02-28T22:11:18.654Z,3.00
2023-02-28T22:13:45.533Z,3.10
2023-02-28T22:16:16.381Z,3.10
2023-02-28T22:18:43.764Z,3.10
2023-02-28T22:21:12.014Z,3.00
2023-02-28T22:23:39.882Z,3.10
2023-02-28T22:26:09.993Z,3.10
2023-02-28T22:28:37.420Z,3.20
2023-02-28T22:31:18.322Z,3.20
2023-02-28T22:33:45.983Z,3.20
2023-02-28T22:36:14.896Z,3.20
2023-02-28T22:38:43.484Z,3.20
2023-02-28T22:41:11.851Z,3.20
2023-02-28T22:43:40.529Z,3.20
2023-02-28T22:46:09.626Z,3.10
2023-02-28T22:48:36.696Z,3.10
2023-02-28T22:51:12.651Z,3.00
2023-02-28T22:53:39.757Z,3.10
2023-02-28T22:56:07.683Z,3.10
2023-02-28T22:58:35.063Z,3.10
2023-02-28T23:01:10.390Z,3.10
2023-02-28T23:03:38.086Z,3.00
2023-02-28T23:06:16.034Z,3.00
2023-02-28T23:08:43.993Z,3.00
2023-02-28T23:11:11.271Z,3.00
2023-02-28T23:13:37.982Z,3.00
2023-02-28T23:16:06.493Z,3.00
2023-02-28T23:18:33.921Z,3.00
2023-02-28T23:21:01.122Z,2.90
2023-02-28T23:23:27.802Z,2.90
2023-02-28T23:25:54.439Z,2.90
2023-02-28T23:28:21.148Z,2.90
2023-02-28T23:30:48.190Z,2.90
2023-02-28T23:33:14.982Z,2.90
2023-02-28T23:35:41.679Z,2.80
2023-02-28T23:38:08.393Z,2.70
2023-02-28T23:40:35.071Z,2.70
2023-02-28T23:43:01.821Z,2.80
2023-02-28T23:45:28.572Z,2.80
2023-02-28T23:47:55.270Z,2.80
2023-02-28T23:50:21.926Z,2.70
2023-02-28T23:52:48.689Z,2.80
2023-02-28T23:55:15.587Z,2.80
2023-02-28T23:57:42.289Z,2.90
